createdAt,value
2023-03-12T00:01:33.376Z,12.07
2023-03-12T00:04:04.384Z,10.30
2023-03-12T00:06:32.010Z,12.30
2023-03-12T00:09:01.858Z,11.65
2023-03-12T00:11:29.965Z,10.85
2023-03-12T00:14:00.144Z,15.07
2023-03-12T00:16:27.953Z,11.75
2023-03-12T00:18:55.779Z,9.93
2023-03-12T00:21:23.512Z,9.73
2023-03-12T00:23:52.031Z,9.20
2023-03-12T00:26:20.625Z,9.55
2023-03-12T00:28:49.220Z,12.05
2023-03-12T00:31:22.254Z,8.75
2023-03-12T00:33:50.238Z,11.43
2023-03-12T00:36:19.221Z,12.27
2023-03-12T00:38:46.610Z,8.40
2023-03-12T00:41:14.333Z,12.07
2023-03-12T00:43:41.692Z,9.20
2023-03-12T00:46:09.343Z,7.03
2023-03-12T00:48:36.742Z,9.48
2023-03-12T00:51:04.526Z,10.77
2023-03-12T00:53:31.960Z,11.68
2023-03-12T00:55:59.312Z,6.65
2023-03-12T00:58:26.298Z,7.72
2023-03-12T01:00:54.265Z,8.98
2023-03-12T01:03:21.619Z,9.43
2023-03-12T01:05:54.055Z,7.72
2023-03-12T01:08:21.955Z,8.57
2023-03-12T01:10:49.969Z,9.45
2023-03-12T01:13:17.518Z,9.50
2023-03-12T01:15:45.132Z,12.00
2023-03-12T01:18:12.576Z,11.00
2023-03-12T01:20:41.066Z,11.52
2023-03-12T01:23:08.962Z,8.65
2023-03-12T01:25:37.289Z,9.70
2023-03-12T01:28:05.090Z,11.48
2023-03-12T01:30:32.816Z,7.97
2023-03-12T01:33:00.263Z,10.73
2023-03-12T01:35:28.280Z,10.20
2023-03-12T01:37:56.156Z,6.30
2023-03-12T01:40:29.280Z,9.02
2023-03-12T01:42:58.109Z,7.05
2023-03-12T01:45:44.761Z,10.93
2023-03-12T01:48:12.179Z,6.50
2023-03-12T01:50:40.193Z,7.82
2023-03-12T01:53:07.544Z,7.13
2023-03-12T01:55:35.301Z,7.95
2023-03-12T01:58:03.029Z,7.95
2023-03-12T02:00:30.722Z,6.78
2023-03-12T02:03:00.855Z,7.15
2023-03-12T02:05:40.930Z,6.63
2023-03-12T02:08:08.304Z,8.05
2023-03-12T02:10:36.334Z,7.00
2023-03-12T02:13:03.886Z,7.95
2023-03-12T02:15:31.559Z,5.63
2023-03-12T02:17:58.990Z,5.18
2023-03-12T02:20:47.184Z,6.07
2023-03-12T02:23:17.743Z,6.70
2023-03-12T02:25:47.615Z,9.55
2023-03-12T02:28:16.347Z,8.70
2023-03-12T02:30:47.101Z,11.50
2023-03-12T02:33:17.494Z,10.63
2023-03-12T02:35:47.621Z,8.88
2023-03-12T02:38:33.717Z,8.52
2023-03-12T02:41:11.189Z,8.15
2023-03-12T02:43:38.690Z,7.68
2023-03-12T02:46:08.169Z,5.20
2023-03-12T02:48:35.817Z,5.50
2023-03-12T02:51:03.558Z,8.93
2023-03-12T02:53:31.045Z,4.18
2023-03-12T02:55:58.815Z,11.30
2023-03-12T02:58:26.276Z,4.63
2023-03-12T03:00:54.959Z,6.93
2023-03-12T03:03:22.419Z,4.20
2023-03-12T03:05:50.122Z,10.80
2023-03-12T03:08:17.493Z,5.95
2023-03-12T03:10:45.444Z,4.53
2023-03-12T03:13:12.966Z,3.45
2023-03-12T03:15:40.932Z,6.13
2023-03-12T03:18:08.319Z,5.80
2023-03-12T03:20:36.487Z,6.97
2023-03-12T03:23:04.568Z,9.23
2023-03-12T03:25:33.681Z,7.03
2023-03-12T03:28:01.237Z,4.47
2023-03-12T03:30:28.917Z,4.63
2023-03-12T03:32:56.394Z,3.35
2023-03-12T03:35:24.269Z,9.65
2023-03-12T03:37:51.736Z,2.97
2023-03-12T03:40:19.485Z,6.10
2023-03-12T03:42:46.571Z,3.63
2023-03-12T03:45:14.225Z,5.63
2023-03-12T03:47:41.638Z,5.60
2023-03-12T03:50:09.619Z,6.38
2023-03-12T03:52:37.034Z,6.00
2023-03-12T03:55:05.411Z,7.03
2023-03-12T03:57:32.950Z,5.30
2023-03-12T04:00:03.526Z,5.82
2023-03-12T04:02:31.311Z,5.90
2023-03-12T04:04:59.245Z,6.82
2023-03-12T04:07:27.052Z,5.75
2023-03-12T04:09:56.244Z,6.32
2023-03-12T04:12:25.976Z,7.30
2023-03-12T04:14:53.754Z,6.63
2023-03-12T04:17:21.156Z,7.70
2023-03-12T04:19:49.081Z,4.65
2023-03-12T04:22:16.463Z,5.53
2023-03-12T04:24:44.134Z,7.70
2023-03-12T04:27:11.547Z,5.63
2023-03-12T04:29:40.750Z,4.45
2023-03-12T04:32:08.684Z,4.57
2023-03-12T04:34:35.919Z,4.28
2023-03-12T04:37:03.314Z,7.05
2023-03-12T04:39:30.963Z,4.72
2023-03-12T04:41:58.033Z,5.18
2023-03-12T04:44:25.650Z,5.75
2023-03-12T04:46:53.189Z,4.78
2023-03-12T04:49:20.992Z,6.05
2023-03-12T04:51:48.338Z,8.55
2023-03-12T04:54:15.992Z,4.50
2023-03-12T04:56:43.389Z,5.07
2023-03-12T04:59:11.019Z,5.28
2023-03-12T05:01:38.697Z,5.82
2023-03-12T05:04:06.740Z,5.28
2023-03-12T05:06:34.599Z,6.65
2023-03-12T05:09:02.838Z,4.47
2023-03-12T05:11:30.375Z,4.05
2023-03-12T05:13:58.072Z,5.72
2023-03-12T05:16:25.539Z,5.93
2023-03-12T05:18:53.221Z,14.50
2023-03-12T05:21:22.054Z,6.60
2023-03-12T05:23:50.082Z,4.60
2023-03-12T05:26:17.552Z,8.98
2023-03-12T05:28:45.274Z,4.65
2023-03-12T05:31:13.240Z,3.60
2023-03-12T05:33:41.117Z,6.88
2023-03-12T05:36:09.031Z,3.58
2023-03-12T05:38:37.144Z,3.30
2023-03-12T05:41:04.755Z,9.05
2023-03-12T05:43:33.248Z,5.03
2023-03-12T05:46:02.092Z,4.25
2023-03-12T05:48:29.851Z,5.78
2023-03-12T05:50:57.681Z,6.47
2023-03-12T05:53:25.042Z,4.75
2023-03-12T05:55:52.520Z,3.97
2023-03-12T05:58:20.271Z,5.70
2023-03-12T06:00:47.694Z,4.03
2023-03-12T06:03:16.088Z,5.95
2023-03-12T06:05:45.004Z,6.85
2023-03-12T06:08:12.775Z,7.88
2023-03-12T06:10:40.266Z,11.27
2023-03-12T06:13:09.201Z,4.13
2023-03-12T06:15:36.327Z,4.47
2023-03-12T06:18:03.939Z,7.57
2023-03-12T06:20:31.502Z,5.15
2023-03-12T06:22:59.616Z,5.63
2023-03-12T06:25:27.026Z,5.10
2023-03-12T06:27:55.188Z,7.82
2023-03-12T06:30:22.926Z,7.10
2023-03-12T06:32:50.676Z,6.35
2023-03-12T06:35:18.315Z,9.02
2023-03-12T06:37:46.121Z,8.18
2023-03-12T06:40:13.966Z,9.05
2023-03-12T06:42:41.630Z,9.63
2023-03-12T06:45:09.423Z,9.30
2023-03-12T06:47:37.409Z,9.00
2023-03-12T06:50:04.972Z,6.30
2023-03-12T06:52:32.983Z,5.15
2023-03-12T06:55:00.350Z,7.03
2023-03-12T06:57:28.269Z,9.45
2023-03-12T06:59:55.811Z,6.25
2023-03-12T07:02:23.850Z,6.10
2023-03-12T07:04:51.405Z,5.50
2023-03-12T07:07:20.151Z,4.22
2023-03-12T07:09:49.166Z,4.28
2023-03-12T07:12:17.539Z,5.93
2023-03-12T07:14:45.104Z,6.72
2023-03-12T07:17:12.958Z,2.63
2023-03-12T07:19:40.720Z,2.38
2023-03-12T07:22:08.739Z,4.25
2023-03-12T07:24:36.283Z,3.70
2023-03-12T07:27:04.565Z,2.30
2023-03-12T07:29:32.137Z,6.30
2023-03-12T07:32:00.108Z,7.07
2023-03-12T07:34:27.865Z,4.43
2023-03-12T07:36:56.488Z,2.08
2023-03-12T07:39:24.096Z,2.03
2023-03-12T07:41:51.585Z,2.58
2023-03-12T07:44:19.261Z,4.07
2023-03-12T07:46:47.838Z,9.18
2023-03-12T07:49:15.459Z,5.90
2023-03-12T07:51:43.381Z,3.95
2023-03-12T07:54:10.617Z,2.03
2023-03-12T07:56:38.704Z,6.65
2023-03-12T07:59:06.791Z,4.45
2023-03-12T08:01:35.346Z,2.80
2023-03-12T08:04:03.225Z,5.75
2023-03-12T08:06:30.731Z,3.50
2023-03-12T08:08:58.247Z,4.90
2023-03-12T08:11:26.172Z,4.22
2023-03-12T08:13:53.720Z,4.82
2023-03-12T08:16:21.618Z,3.67
2023-03-12T08:18:49.255Z,3.63
2023-03-12T08:21:17.410Z,5.10
2023-03-12T08:23:45.095Z,2.33
2023-03-12T08:26:13.051Z,4.53
2023-03-12T08:28:40.718Z,5.55
2023-03-12T08:31:09.554Z,3.67
2023-03-12T08:33:41.172Z,3.55
2023-03-12T08:36:08.881Z,5.43
2023-03-12T08:38:36.274Z,3.58
2023-03-12T08:41:04.142Z,6.32
2023-03-12T08:43:31.732Z,3.88
2023-03-12T08:46:01.710Z,6.63
2023-03-12T08:48:30.744Z,5.55
2023-03-12T08:50:59.569Z,8.43
2023-03-12T08:53:27.545Z,3.10
2023-03-12T08:55:55.724Z,3.40
2023-03-12T08:58:24.931Z,3.85
2023-03-12T09:00:53.287Z,1.05
2023-03-12T09:03:21.647Z,3.50
2023-03-12T09:05:49.831Z,3.67
2023-03-12T09:08:18.043Z,3.03
2023-03-12T09:10:52.599Z,2.35
2023-03-12T09:13:19.586Z,2.95
2023-03-12T09:15:47.500Z,2.08
2023-03-12T09:18:15.406Z,2.00
2023-03-12T09:20:43.764Z,5.85
2023-03-12T09:23:11.328Z,2.60
2023-03-12T09:25:38.650Z,10.48
2023-03-12T09:28:06.092Z,20.40
2023-03-12T09:30:34.041Z,2.55
2023-03-12T09:33:01.599Z,3.60
2023-03-12T09:35:31.588Z,3.50
2023-03-12T09:37:59.337Z,4.90
2023-03-12T09:40:29.282Z,3.97
2023-03-12T09:43:00.305Z,5.00
2023-03-12T09:45:31.242Z,2.90
2023-03-12T09:48:02.687Z,6.80
2023-03-12T09:50:33.596Z,5.73
2023-03-12T09:53:05.852Z,5.50
2023-03-12T09:55:37.747Z,4.95
2023-03-12T09:58:05.489Z,4.30
2023-03-12T10:00:35.879Z,5.90
2023-03-12T10:03:03.488Z,2.95
2023-03-12T10:05:44.371Z,3.42
2023-03-12T10:08:24.008Z,5.35
2023-03-12T10:11:09.102Z,4.88
2023-03-12T10:13:48.760Z,5.18
2023-03-12T10:16:38.076Z,1.33
2023-03-12T10:19:05.503Z,3.67
2023-03-12T10:21:48.260Z,3.28
2023-03-12T10:24:15.601Z,2.97
2023-03-12T10:27:02.060Z,5.25
2023-03-12T10:29:30.718Z,2.10
2023-03-12T10:32:04.983Z,4.38
2023-03-12T10:34:37.653Z,2.05
2023-03-12T10:37:10.478Z,1.88
2023-03-12T10:39:37.998Z,4.53
2023-03-12T10:42:13.401Z,3.22
2023-03-12T10:44:41.053Z,2.08
2023-03-12T10:47:19.553Z,1.80
2023-03-12T10:49:50.567Z,6.20
2023-03-12T10:52:21.722Z,1.90
2023-03-12T10:54:51.496Z,1.90
2023-03-12T10:57:19.650Z,4.25
2023-03-12T10:59:48.425Z,5.68
2023-03-12T11:02:25.591Z,7.57
2023-03-12T11:04:53.774Z,5.15
2023-03-12T11:07:36.597Z,7.32
2023-03-12T11:10:06.793Z,3.20
2023-03-12T11:12:36.266Z,4.90
2023-03-12T11:15:19.212Z,6.63
2023-03-12T11:17:47.392Z,4.85
2023-03-12T11:20:23.786Z,2.47
2023-03-12T11:22:51.671Z,2.55
2023-03-12T11:25:29.629Z,8.57
2023-03-12T11:28:00.057Z,2.60
2023-03-12T11:30:33.103Z,8.75
2023-03-12T11:33:02.294Z,8.48
2023-03-12T11:35:39.886Z,1.95
2023-03-12T11:38:30.601Z,6.18
2023-03-12T11:41:03.901Z,7.20
2023-03-12T11:43:43.574Z,3.30
2023-03-12T11:46:20.757Z,3.85
2023-03-12T11:48:48.873Z,5.53
2023-03-12T11:51:34.811Z,6.90
2023-03-12T11:54:08.899Z,3.55
2023-03-12T11:56:56.838Z,4.70
2023-03-12T11:59:25.473Z,4.35
2023-03-12T12:01:58.727Z,5.15
2023-03-12T12:04:29.300Z,5.35
2023-03-12T12:07:03.121Z,7.35
2023-03-12T12:09:41.205Z,3.83
2023-03-12T12:12:08.601Z,3.60
2023-03-12T12:14:39.852Z,3.35
2023-03-12T12:17:16.714Z,3.67
2023-03-12T12:19:53.574Z,3.53
2023-03-12T12:23:02.265Z,5.50
2023-03-12T12:25:29.978Z,4.07
2023-03-12T12:28:03.295Z,3.22
2023-03-12T12:30:36.851Z,2.20
2023-03-12T12:33:09.896Z,4.50
2023-03-12T12:35:38.827Z,3.08
2023-03-12T12:38:19.198Z,3.25
2023-03-12T12:40:52.250Z,8.85
2023-03-12T12:43:38.247Z,3.50
2023-03-12T12:46:11.725Z,1.83
2023-03-12T12:48:40.757Z,2.20
2023-03-12T12:51:09.227Z,5.68
2023-03-12T12:53:55.457Z,5.65
2023-03-12T12:56:31.205Z,2.47
2023-03-12T12:59:07.822Z,4.70
2023-03-12T13:01:36.793Z,1.88
2023-03-12T13:04:11.619Z,4.47
2023-03-12T13:06:58.361Z,4.63
2023-03-12T13:09:44.116Z,1.65
2023-03-12T13:12:14.858Z,2.25
2023-03-12T13:14:43.978Z,2.72
2023-03-12T13:17:30.206Z,6.45
2023-03-12T13:20:10.895Z,3.17
2023-03-12T13:22:38.606Z,4.97
2023-03-12T13:25:09.185Z,6.80
2023-03-12T13:27:38.545Z,5.93
2023-03-12T13:30:24.740Z,5.05
2023-03-12T13:33:06.037Z,7.20
2023-03-12T13:35:37.631Z,7.22
2023-03-12T13:38:07.014Z,4.53
2023-03-12T13:40:35.427Z,15.13
2023-03-12T13:43:13.703Z,8.23
2023-03-12T13:45:42.604Z,4.78
2023-03-12T13:48:18.979Z,4.60
2023-03-12T13:50:52.098Z,1.95
2023-03-12T13:53:28.470Z,2.70
2023-03-12T13:56:17.884Z,9.07
2023-03-12T13:58:55.009Z,10.05
2023-03-12T14:01:24.787Z,6.35
2023-03-12T14:04:04.721Z,3.28
2023-03-12T14:06:36.953Z,7.03
2023-03-12T14:09:10.808Z,7.90
2023-03-12T14:11:41.247Z,2.38
2023-03-12T14:14:27.632Z,4.75
2023-03-12T14:16:57.901Z,3.83
2023-03-12T14:19:33.579Z,2.97
2023-03-12T14:22:03.039Z,6.75
2023-03-12T14:24:35.511Z,2.22
2023-03-12T14:27:05.465Z,2.13
2023-03-12T14:29:43.448Z,3.63
2023-03-12T14:32:15.566Z,7.93
2023-03-12T14:34:47.428Z,2.78
2023-03-12T14:37:20.897Z,4.72
2023-03-12T14:39:52.026Z,4.20
2023-03-12T14:42:27.430Z,7.47
2023-03-12T14:45:12.280Z,8.50
2023-03-12T14:47:43.776Z,11.43
2023-03-12T14:50:17.811Z,5.30
2023-03-12T14:55:18.406Z,8.02
2023-03-12T14:57:45.919Z,8.73
2023-03-12T15:00:23.287Z,6.30
2023-03-12T15:02:52.339Z,3.63
2023-03-12T15:05:21.339Z,5.55
2023-03-12T15:07:49.839Z,8.57
2023-03-12T15:10:25.017Z,11.23
2023-03-12T15:12:56.216Z,6.00
2023-03-12T15:15:36.126Z,4.68
2023-03-12T15:18:11.488Z,5.57
2023-03-12T15:20:39.695Z,5.38
2023-03-12T15:23:08.255Z,9.05
2023-03-12T15:25:36.324Z,12.02
2023-03-12T15:28:15.827Z,10.75
2023-03-12T15:30:44.002Z,5.25
2023-03-12T15:33:13.830Z,22.88
2023-03-12T15:35:58.943Z,13.98
2023-03-12T15:38:26.706Z,8.55
2023-03-12T15:40:59.072Z,7.13
2023-03-12T15:43:27.945Z,10.90
2023-03-12T15:46:03.821Z,10.77
2023-03-12T15:48:31.329Z,11.15
2023-03-12T15:50:59.534Z,10.30
2023-03-12T15:53:31.148Z,10.30
2023-03-12T15:56:03.330Z,13.85
2023-03-12T15:58:35.264Z,14.32
2023-03-12T16:01:16.821Z,5.83
2023-03-12T16:03:48.026Z,7.35
2023-03-12T16:06:19.682Z,6.50
2023-03-12T16:08:58.049Z,8.27
2023-03-12T16:11:27.427Z,4.38
2023-03-12T16:14:05.299Z,8.30
2023-03-12T16:16:33.365Z,8.38
2023-03-12T16:19:00.904Z,4.78
2023-03-12T16:21:28.707Z,5.70
2023-03-12T16:23:55.735Z,12.13
2023-03-12T16:26:23.773Z,9.15
2023-03-12T16:28:51.200Z,9.75
2023-03-12T16:31:19.433Z,7.00
2023-03-12T16:33:47.108Z,14.63
2023-03-12T16:36:16.654Z,10.75
2023-03-12T16:38:44.905Z,10.77
2023-03-12T16:41:18.407Z,14.85
2023-03-12T16:43:50.111Z,20.33
2023-03-12T16:46:19.857Z,30.55
2023-03-12T16:48:50.860Z,33.47
2023-03-12T16:51:18.530Z,41.58
2023-03-12T16:53:47.599Z,39.33
2023-03-12T16:56:21.861Z,37.03
2023-03-12T16:58:52.884Z,22.80
2023-03-12T17:01:22.630Z,23.60
2023-03-12T17:03:50.459Z,10.20
2023-03-12T17:06:22.633Z,12.90
2023-03-12T17:08:50.275Z,11.65
2023-03-12T17:11:25.572Z,11.15
2023-03-12T17:13:55.449Z,5.35
2023-03-12T17:16:23.977Z,9.23
2023-03-12T17:18:51.611Z,10.30
2023-03-12T17:21:20.157Z,12.55
2023-03-12T17:23:49.985Z,9.68
2023-03-12T17:26:18.381Z,22.23
2023-03-12T17:28:46.082Z,25.23
2023-03-12T17:31:13.831Z,11.48
2023-03-12T17:33:43.024Z,15.48
2023-03-12T17:36:10.955Z,12.02
2023-03-12T17:38:38.424Z,10.68
2023-03-12T17:41:23.503Z,13.77
2023-03-12T17:43:53.263Z,11.13
2023-03-12T17:46:22.176Z,7.50
2023-03-12T17:48:49.233Z,8.73
2023-03-12T17:51:16.985Z,12.75
2023-03-12T17:53:44.379Z,6.90
2023-03-12T17:56:12.790Z,8.48
2023-03-12T17:58:41.323Z,10.85
2023-03-12T18:01:09.072Z,8.15
2023-03-12T18:03:36.307Z,10.40
2023-03-12T18:06:04.289Z,13.85
2023-03-12T18:08:31.738Z,7.78
2023-03-12T18:11:01.649Z,19.15
2023-03-12T18:13:29.915Z,23.83
2023-03-12T18:16:00.298Z,40.85
2023-03-12T18:18:28.263Z,168.88
2023-03-12T18:20:56.142Z,226.13
2023-03-12T18:23:25.275Z,101.53
2023-03-12T18:25:52.933Z,38.50
2023-03-12T18:28:21.053Z,26.17
2023-03-12T18:30:48.889Z,20.42
2023-03-12T18:33:17.021Z,13.27
2023-03-12T18:35:44.885Z,24.38
2023-03-12T18:38:12.677Z,27.38
2023-03-12T18:40:40.564Z,23.70
2023-03-12T18:43:08.247Z,14.85
2023-03-12T18:45:36.172Z,11.63
2023-03-12T18:48:04.993Z,11.00
2023-03-12T18:50:33.243Z,8.95
2023-03-12T18:53:00.313Z,10.13
2023-03-12T18:55:28.288Z,8.07
2023-03-12T18:57:56.283Z,12.50
2023-03-12T19:00:24.286Z,8.82
2023-03-12T19:02:51.462Z,9.25
2023-03-12T19:05:19.548Z,11.45
2023-03-12T19:07:46.895Z,7.72
2023-03-12T19:10:15.173Z,12.70
2023-03-12T19:12:52.161Z,7.18
2023-03-12T19:15:21.722Z,10.95
2023-03-12T19:17:48.867Z,9.50
2023-03-12T19:20:16.824Z,9.30
2023-03-12T19:22:44.260Z,12.20
2023-03-12T19:25:11.974Z,11.15
2023-03-12T19:27:39.367Z,9.63
2023-03-12T19:30:08.916Z,11.18
2023-03-12T19:32:43.191Z,9.93
2023-03-12T19:35:12.950Z,6.18
2023-03-12T19:37:40.313Z,11.75
2023-03-12T19:40:08.271Z,12.40
2023-03-12T19:42:35.809Z,10.27
2023-03-12T19:45:03.471Z,7.85
2023-03-12T19:47:33.157Z,9.40
2023-03-12T19:50:00.897Z,8.93
2023-03-12T19:52:28.436Z,12.55
2023-03-12T19:55:04.172Z,12.50
2023-03-12T19:57:32.535Z,15.40
2023-03-12T20:00:00.217Z,12.60
2023-03-12T20:02:27.836Z,11.02
2023-03-12T20:04:56.155Z,10.60
2023-03-12T20:07:23.600Z,10.73
2023-03-12T20:09:51.848Z,12.82
2023-03-12T20:12:19.289Z,11.60
2023-03-12T20:14:47.693Z,19.55
2023-03-12T20:17:15.779Z,12.73
2023-03-12T20:19:43.589Z,16.90
2023-03-12T20:22:11.029Z,18.15
2023-03-12T20:24:38.553Z,12.48
2023-03-12T20:27:05.985Z,21.45
2023-03-12T20:29:33.967Z,10.13
2023-03-12T20:32:01.088Z,14.55
2023-03-12T20:34:29.125Z,15.23
2023-03-12T20:36:56.470Z,14.02
2023-03-12T20:39:24.106Z,16.42
2023-03-12T20:41:51.117Z,13.80
2023-03-12T20:44:19.046Z,17.60
2023-03-12T20:46:47.658Z,12.23
2023-03-12T20:49:15.058Z,14.50
2023-03-12T20:51:43.033Z,16.20
2023-03-12T20:54:11.211Z,18.60
2023-03-12T20:56:43.408Z,18.65
2023-03-12T20:59:11.741Z,20.25
2023-03-12T21:01:38.740Z,22.63
2023-03-12T21:04:06.607Z,16.25
2023-03-12T21:06:33.985Z,21.05
2023-03-12T21:09:01.698Z,18.83
2023-03-12T21:11:29.170Z,21.27
2023-03-12T21:13:57.076Z,21.65
2023-03-12T21:16:24.744Z,18.20
2023-03-12T21:18:56.375Z,17.13
2023-03-12T21:21:23.456Z,24.83
2023-03-12T21:23:51.510Z,22.70
2023-03-12T21:26:19.096Z,20.10
2023-03-12T21:28:47.228Z,28.13
2023-03-12T21:31:16.909Z,24.52
2023-03-12T21:33:44.804Z,20.75
2023-03-12T21:36:13.393Z,20.50
2023-03-12T21:38:42.848Z,19.92
2023-03-12T21:41:11.332Z,20.98
2023-03-12T21:43:39.253Z,12.80
2023-03-12T21:46:08.177Z,14.98
2023-03-12T21:48:35.923Z,13.15
2023-03-12T21:51:08.245Z,8.07
2023-03-12T21:53:36.301Z,14.45
2023-03-12T21:56:04.066Z,8.52
2023-03-12T21:58:32.859Z,9.88
2023-03-12T22:01:19.467Z,12.82
2023-03-12T22:03:47.653Z,15.50
2023-03-12T22:06:15.944Z,9.02
2023-03-12T22:08:44.657Z,10.77
2023-03-12T22:11:12.204Z,10.45
2023-03-12T22:13:39.896Z,11.82
2023-03-12T22:16:08.481Z,16.90
2023-03-12T22:18:40.828Z,12.63
2023-03-12T22:21:08.569Z,12.30
2023-03-12T22:23:37.032Z,13.00
2023-03-12T22:26:06.335Z,9.63
2023-03-12T22:28:34.064Z,11.82
2023-03-12T22:31:03.545Z,15.27
2023-03-12T22:33:31.144Z,11.50
2023-03-12T22:35:58.599Z,13.60
2023-03-12T22:38:26.137Z,10.80
2023-03-12T22:40:55.684Z,11.48
2023-03-12T22:43:25.806Z,14.48
2023-03-12T22:45:54.218Z,11.40
2023-03-12T22:48:21.970Z,8.60
2023-03-12T22:50:55.447Z,12.00
2023-03-12T22:53:23.473Z,10.07
2023-03-12T22:56:01.343Z,9.10
2023-03-12T22:58:29.276Z,11.05
2023-03-12T23:01:03.879Z,12.98
2023-03-12T23:03:31.909Z,7.90
2023-03-12T23:05:59.708Z,10.15
2023-03-12T23:08:27.732Z,15.43
2023-03-12T23:10:56.461Z,7.75
2023-03-12T23:13:25.091Z,11.40
2023-03-12T23:15:52.722Z,9.20
2023-03-12T23:18:20.832Z,9.15
2023-03-12T23:20:48.176Z,9.52
2023-03-12T23:23:16.081Z,7.15
2023-03-12T23:25:43.462Z,5.95
2023-03-12T23:28:11.111Z,9.52
2023-03-12T23:30:38.506Z,8.15
2023-03-12T23:33:06.398Z,6.47
2023-03-12T23:35:33.375Z,6.53
2023-03-12T23:38:01.231Z,7.85
2023-03-12T23:40:28.592Z,11.75
2023-03-12T23:42:56.484Z,8.57
2023-03-12T23:45:24.016Z,7.00
2023-03-12T23:47:51.940Z,5.57
2023-03-12T23:50:19.271Z,8.35
2023-03-12T23:52:46.971Z,7.90
2023-03-12T23:55:14.332Z,5.50
2023-03-12T23:57:42.260Z,6.35
